KRIV/RIV METAR and TAF weather

Enter ICAO airport designator
Station Type Date Time Source
KRIV METAR 2021/09/24 05:58 UTC NOAA

KRIV 240558Z 00000KT 10SM BKN120 22/10 A2995 RMK AO2A FU BKN120 SLPNO ALSTG ESTMD


Station Type Date Time Source
KRIV Decoded METAR 2021/09/24 05:58 UTC NOAA

Riverside / March Air Force Base, CA, United States (KRIV) 33-54N 117-15W 468M
Sep 24, 2021 - 01:58 AM EDT / 2021.09.24 0558 UTC
Wind: Calm:0
Visibility: 10 mile(s):0
Sky conditions: mostly cloudy
Temperature: 71 F (22 C)
Dew Point: 50 F (10 C)
Relative Humidity: 46%
Pressure (altimeter): 29.95 in. Hg (1014 hPa)
ob: KRIV 240558Z 00000KT 10SM BKN120 22/10 A2995 RMK AO2A FU BKN120 SLPNO ALSTG ESTMD
cycle: 6

Station Type Date Time Source
KRIV TAF 2021/09/24 04:16 UTC NOAA

TAF KRIV 240405Z 2404/2510 31009KT 9999 BKN120 QNH2991INS FU BKN120
BECMG 2404/2405 VRB04KT 9999 BKN120 QNH2990INS FU BKN120
BECMG 2418/2419 31009KT 9999 FEW100 BKN120 510005 QNH2988INS TS OMTNS NE-SE TIL 2501 FU BKN120
TEMPO 2420/2501 31012G20KT 9999 VCTS SCT100CB BKN120 FU BKN120
BECMG 2504/2505 VRB04KT 9999 FEW100 BKN120 QNH2995INS FU BKN120 TX32/2422Z TN18/2413Z

Example: see airport list